createdAt,value
2019-03-30T00:00:30.699Z,99.90
2019-03-30T00:03:00.057Z,99.90
2019-03-30T00:05:29.396Z,99.90
2019-03-30T00:07:58.738Z,99.90
2019-03-30T00:10:28.078Z,99.90
2019-03-30T00:12:57.422Z,99.90
2019-03-30T00:15:26.788Z,99.90
2019-03-30T00:17:56.134Z,99.90
2019-03-30T00:20:25.474Z,99.90
2019-03-30T00:22:54.830Z,99.90
2019-03-30T00:25:24.175Z,99.90
2019-03-30T00:27:53.530Z,99.90
2019-03-30T00:30:22.877Z,99.90
2019-03-30T00:32:52.211Z,99.90
2019-03-30T00:35:21.550Z,99.90
2019-03-30T00:37:51.173Z,99.90
2019-03-30T00:40:20.510Z,99.90
2019-03-30T00:42:50.192Z,99.90
2019-03-30T00:45:19.529Z,99.90
2019-03-30T00:47:48.868Z,99.90
2019-03-30T00:50:18.210Z,99.90
2019-03-30T00:52:47.561Z,99.90
2019-03-30T00:55:16.890Z,99.90
2019-03-30T00:57:46.226Z,99.90
2019-03-30T01:00:16.275Z,99.90
2019-03-30T01:02:45.629Z,99.90
2019-03-30T01:05:14.966Z,99.90
2019-03-30T01:07:44.315Z,99.90
2019-03-30T01:10:17.210Z,99.90
2019-03-30T01:12:46.551Z,99.90
2019-03-30T01:15:16.070Z,99.90
2019-03-30T01:17:45.410Z,99.90
2019-03-30T01:20:15.110Z,99.90
2019-03-30T01:22:44.446Z,99.90
2019-03-30T01:25:14.028Z,99.90
2019-03-30T01:27:43.383Z,99.90
2019-03-30T01:30:23.066Z,99.90
2019-03-30T01:32:44.292Z,99.90
2019-03-30T01:35:13.705Z,99.90
2019-03-30T01:37:43.179Z,99.90
2019-03-30T01:40:12.771Z,99.90
2019-03-30T01:42:42.114Z,99.90
2019-03-30T01:45:11.517Z,99.90
2019-03-30T01:47:40.862Z,99.90
2019-03-30T01:50:17.511Z,99.90
2019-03-30T01:52:41.713Z,99.90
2019-03-30T01:55:11.289Z,99.90
2019-03-30T01:57:40.631Z,99.90
2019-03-30T02:00:11.046Z,99.90
2019-03-30T02:02:40.480Z,99.90
2019-03-30T02:05:10.710Z,99.90
2019-03-30T02:07:40.047Z,99.90
2019-03-30T02:10:10.542Z,99.90
2019-03-30T02:12:39.883Z,99.90
2019-03-30T02:15:10.129Z,99.90
2019-03-30T02:17:39.474Z,99.90
2019-03-30T02:20:11.089Z,99.90
2019-03-30T02:22:40.430Z,99.90
2019-03-30T02:25:11.375Z,99.90
2019-03-30T02:27:40.756Z,99.90
2019-03-30T02:30:10.135Z,99.90
2019-03-30T02:32:39.483Z,99.90
2019-03-30T02:35:08.833Z,99.90
2019-03-30T02:37:38.166Z,99.90
2019-03-30T02:40:08.117Z,99.90
2019-03-30T02:42:37.463Z,99.90
2019-03-30T02:45:08.043Z,99.90
2019-03-30T02:47:37.385Z,99.90
2019-03-30T02:50:07.728Z,99.90
2019-03-30T02:52:37.056Z,99.90
2019-03-30T02:55:12.402Z,99.90
2019-03-30T02:57:39.059Z,99.90
2019-03-30T03:00:11.758Z,99.90
2019-03-30T03:02:41.102Z,99.90
2019-03-30T03:05:17.139Z,99.90
2019-03-30T03:07:46.518Z,99.90
2019-03-30T03:10:16.543Z,99.90
2019-03-30T03:12:45.909Z,99.90
2019-03-30T03:15:15.229Z,99.90
2019-03-30T03:17:44.569Z,99.90
2019-03-30T03:20:14.436Z,99.90
2019-03-30T03:22:43.778Z,99.90
2019-03-30T03:25:13.271Z,99.90
2019-03-30T03:27:42.615Z,99.90
2019-03-30T03:30:12.653Z,99.90
2019-03-30T03:32:41.994Z,99.90
2019-03-30T03:35:11.840Z,99.90
2019-03-30T03:37:45.303Z,99.90
2019-03-30T03:40:12.563Z,99.90
2019-03-30T03:42:41.916Z,99.90
2019-03-30T03:45:11.966Z,99.90
2019-03-30T03:47:41.306Z,99.90
2019-03-30T03:50:41.209Z,99.90
2019-03-30T03:53:12.987Z,99.90
2019-03-30T03:55:42.968Z,99.90
2019-03-30T03:58:12.822Z,99.90
2019-03-30T04:00:42.700Z,99.90
2019-03-30T04:03:15.131Z,99.90
2019-03-30T04:05:46.986Z,99.90
2019-03-30T04:08:16.555Z,99.90
2019-03-30T04:10:48.377Z,99.90
2019-03-30T04:13:17.949Z,99.90
2019-03-30T04:15:47.366Z,99.90
2019-03-30T04:18:18.107Z,99.90
2019-03-30T04:20:47.462Z,99.90
2019-03-30T04:23:16.958Z,99.90
2019-03-30T04:25:46.238Z,99.90
2019-03-30T04:28:15.645Z,99.90
2019-03-30T04:30:45.265Z,99.90
2019-03-30T04:33:14.612Z,99.90
2019-03-30T04:35:43.960Z,99.90
2019-03-30T04:38:14.422Z,99.90
2019-03-30T04:40:44.020Z,99.90
2019-03-30T04:43:13.705Z,99.90
2019-03-30T04:45:44.674Z,99.90
2019-03-30T04:48:14.017Z,99.90
2019-03-30T04:50:43.359Z,99.90
2019-03-30T04:53:13.009Z,99.90
2019-03-30T04:55:42.418Z,99.90
2019-03-30T04:58:11.761Z,99.90
2019-03-30T05:00:41.104Z,99.90
2019-03-30T05:03:10.444Z,99.90
2019-03-30T05:05:42.888Z,99.90
2019-03-30T05:08:10.851Z,99.90
2019-03-30T05:10:40.208Z,99.90
2019-03-30T05:13:09.549Z,99.90
2019-03-30T05:15:38.888Z,99.90
2019-03-30T05:18:08.230Z,99.90
2019-03-30T05:20:37.565Z,99.90
2019-03-30T05:23:06.911Z,99.90
2019-03-30T05:25:36.247Z,99.90
2019-03-30T05:28:05.595Z,99.90
2019-03-30T05:30:34.937Z,99.90
2019-03-30T05:33:05.938Z,99.90
2019-03-30T05:35:35.417Z,99.90
2019-03-30T05:38:04.757Z,99.90
2019-03-30T05:40:34.093Z,99.90
2019-03-30T05:43:03.447Z,99.90
2019-03-30T05:45:32.792Z,99.90
2019-03-30T05:48:02.146Z,99.90
2019-03-30T05:50:31.487Z,99.90
2019-03-30T05:53:00.839Z,99.90
2019-03-30T05:55:30.178Z,99.90
2019-03-30T05:57:59.529Z,99.90
2019-03-30T06:00:28.866Z,99.90
2019-03-30T06:02:58.206Z,99.90
2019-03-30T06:05:27.544Z,99.90
2019-03-30T06:07:56.883Z,99.90
2019-03-30T06:10:26.220Z,99.90
2019-03-30T06:12:55.565Z,99.90
2019-03-30T06:15:24.903Z,99.90
2019-03-30T06:17:54.246Z,99.90
2019-03-30T06:20:23.591Z,99.90
2019-03-30T06:22:53.991Z,99.90
2019-03-30T06:25:23.369Z,99.90
2019-03-30T06:27:52.673Z,99.90
2019-03-30T06:30:26.397Z,99.90
2019-03-30T06:32:55.740Z,99.90
2019-03-30T06:35:25.074Z,99.90
2019-03-30T06:37:54.426Z,99.90
2019-03-30T06:40:23.761Z,99.90
2019-03-30T06:42:53.110Z,99.90
2019-03-30T06:45:22.438Z,99.90
2019-03-30T06:47:51.800Z,99.90
2019-03-30T06:50:21.504Z,99.90
2019-03-30T06:52:57.294Z,99.90
2019-03-30T06:55:21.882Z,99.90
2019-03-30T06:57:51.223Z,99.90
2019-03-30T07:00:30.753Z,99.90
2019-03-30T07:03:02.366Z,99.90
2019-03-30T07:05:34.112Z,99.90
2019-03-30T07:08:04.602Z,99.90
2019-03-30T07:10:33.964Z,99.90
2019-03-30T07:13:04.524Z,99.90
2019-03-30T07:15:36.935Z,99.90
2019-03-30T07:18:06.655Z,99.90
2019-03-30T07:20:35.998Z,99.90
2019-03-30T07:23:11.750Z,99.90
2019-03-30T07:25:36.411Z,99.90
2019-03-30T07:28:05.756Z,99.90
2019-03-30T07:30:36.278Z,99.90
2019-03-30T07:33:05.665Z,99.90
2019-03-30T07:35:34.975Z,99.90
2019-03-30T07:38:04.321Z,99.90
2019-03-30T07:40:34.028Z,99.90
2019-03-30T07:43:03.499Z,99.90
2019-03-30T07:45:32.869Z,99.90
2019-03-30T07:48:02.212Z,99.90
2019-03-30T07:50:31.571Z,99.90
2019-03-30T07:53:00.919Z,99.90
2019-03-30T07:55:30.338Z,99.90
2019-03-30T07:57:59.739Z,99.90
2019-03-30T08:00:30.895Z,99.90
2019-03-30T08:03:00.118Z,99.90
2019-03-30T08:05:29.481Z,99.90
2019-03-30T08:07:58.843Z,99.90
2019-03-30T08:10:28.195Z,99.90
2019-03-30T08:12:57.535Z,99.90
2019-03-30T08:15:26.883Z,99.90
2019-03-30T08:17:56.227Z,99.90
2019-03-30T08:20:25.576Z,99.90
2019-03-30T08:22:54.919Z,99.90
2019-03-30T08:25:24.259Z,99.90
2019-03-30T08:27:53.603Z,99.90
2019-03-30T08:30:22.944Z,99.90
2019-03-30T08:32:52.299Z,99.90
2019-03-30T08:35:21.661Z,99.90
2019-03-30T08:37:51.008Z,99.90
2019-03-30T08:40:20.366Z,99.90
2019-03-30T08:42:49.708Z,99.90
2019-03-30T08:45:19.052Z,99.90
2019-03-30T08:47:48.400Z,99.90
2019-03-30T08:50:19.002Z,99.90
2019-03-30T08:52:48.361Z,99.90
2019-03-30T08:55:17.711Z,99.90
2019-03-30T08:57:47.053Z,99.90
2019-03-30T09:00:27.024Z,99.90
2019-03-30T09:02:56.365Z,99.90
2019-03-30T09:05:25.737Z,99.80
2019-03-30T09:07:55.082Z,99.60
2019-03-30T09:10:24.430Z,99.60
2019-03-30T09:12:53.769Z,99.60
2019-03-30T09:15:23.109Z,99.40
2019-03-30T09:17:52.553Z,99.40
2019-03-30T09:20:21.923Z,99.00
2019-03-30T09:22:51.371Z,99.00
2019-03-30T09:25:20.721Z,98.80
2019-03-30T09:27:50.071Z,98.70
2019-03-30T09:30:19.408Z,98.60
2019-03-30T09:32:48.839Z,98.50
2019-03-30T09:35:18.651Z,97.60
2019-03-30T09:37:47.996Z,97.30
2019-03-30T09:40:17.408Z,96.90
2019-03-30T09:42:46.753Z,96.30
2019-03-30T09:45:16.110Z,95.90
2019-03-30T09:47:45.450Z,95.60
2019-03-30T09:50:15.311Z,95.50
2019-03-30T09:52:44.657Z,95.30
2019-03-30T09:55:14.178Z,95.00
2019-03-30T09:57:43.519Z,95.00
2019-03-30T10:00:13.875Z,94.90
2019-03-30T10:02:43.216Z,94.70
2019-03-30T10:05:13.025Z,94.70
2019-03-30T10:07:42.387Z,94.60
2019-03-30T10:10:13.139Z,94.40
2019-03-30T10:12:42.435Z,94.20
2019-03-30T10:15:12.306Z,94.00
2019-03-30T10:17:41.652Z,94.00
2019-03-30T10:20:12.312Z,93.90
2019-03-30T10:22:42.299Z,93.70
2019-03-30T10:25:12.176Z,93.40
2019-03-30T10:27:41.531Z,93.70
2019-03-30T10:30:12.584Z,93.50
2019-03-30T10:32:41.943Z,93.10
2019-03-30T10:35:11.447Z,93.40
2019-03-30T10:37:40.791Z,92.50
2019-03-30T10:40:10.371Z,92.40
2019-03-30T10:42:39.715Z,92.10
2019-03-30T10:45:10.088Z,92.10
2019-03-30T10:47:39.419Z,91.60
2019-03-30T10:50:09.202Z,91.80
2019-03-30T10:52:38.551Z,92.30
2019-03-30T10:55:09.206Z,93.00
2019-03-30T10:57:38.551Z,92.40
2019-03-30T11:00:10.071Z,92.60
2019-03-30T11:02:40.883Z,91.60
2019-03-30T11:05:10.499Z,91.70
2019-03-30T11:07:39.838Z,91.30
2019-03-30T11:10:09.816Z,91.30
2019-03-30T11:12:39.159Z,91.00
2019-03-30T11:15:08.671Z,91.20
2019-03-30T11:17:38.018Z,90.70
2019-03-30T11:20:07.530Z,90.70
2019-03-30T11:22:36.875Z,91.10
2019-03-30T11:25:08.538Z,91.40
2019-03-30T11:27:37.709Z,91.20
2019-03-30T11:30:08.000Z,90.90
2019-03-30T11:32:37.508Z,91.30
2019-03-30T11:35:07.630Z,90.80
2019-03-30T11:37:36.979Z,90.70
2019-03-30T11:40:08.336Z,89.70
2019-03-30T11:42:37.686Z,89.50
2019-03-30T11:45:07.671Z,89.10
2019-03-30T11:47:37.029Z,90.10
2019-03-30T11:50:09.539Z,88.70
2019-03-30T11:52:38.896Z,88.50
2019-03-30T11:55:21.092Z,88.10
2019-03-30T11:57:40.246Z,88.60
2019-03-30T12:00:10.295Z,88.70
2019-03-30T12:02:39.644Z,88.90
2019-03-30T12:05:09.295Z,89.20
2019-03-30T12:07:39.667Z,87.00
2019-03-30T12:10:09.080Z,86.40
2019-03-30T12:12:38.434Z,85.90
2019-03-30T12:15:08.987Z,84.20
2019-03-30T12:17:41.006Z,85.00
2019-03-30T12:20:09.814Z,84.10
2019-03-30T12:22:39.158Z,80.80
2019-03-30T12:25:08.817Z,81.40
2019-03-30T12:27:38.175Z,81.70
2019-03-30T12:30:08.825Z,81.80
2019-03-30T12:32:38.170Z,79.80
2019-03-30T12:35:08.820Z,80.00
2019-03-30T12:37:38.175Z,79.30
2019-03-30T12:40:08.436Z,79.80
2019-03-30T12:42:37.792Z,79.50
2019-03-30T12:45:08.443Z,78.50
2019-03-30T12:47:37.788Z,78.50
2019-03-30T12:50:10.636Z,81.00
2019-03-30T12:52:43.186Z,78.40
2019-03-30T12:55:12.865Z,78.80
2019-03-30T12:57:42.226Z,75.60
2019-03-30T13:00:12.775Z,75.80
2019-03-30T13:02:42.117Z,75.40
2019-03-30T13:05:11.599Z,75.20
2019-03-30T13:07:40.948Z,75.60
2019-03-30T13:10:10.629Z,72.50
2019-03-30T13:12:39.981Z,73.10
2019-03-30T13:15:10.246Z,73.80
2019-03-30T13:17:39.587Z,74.90
2019-03-30T13:20:08.988Z,74.20
2019-03-30T13:22:38.339Z,74.40
2019-03-30T13:25:07.792Z,73.90
2019-03-30T13:27:37.152Z,74.30
2019-03-30T13:30:09.221Z,75.60
2019-03-30T13:32:38.568Z,76.00
2019-03-30T13:35:08.146Z,77.00
2019-03-30T13:37:37.499Z,75.80
2019-03-30T13:40:09.045Z,76.70
2019-03-30T13:42:38.396Z,76.80
2019-03-30T13:45:08.553Z,75.50
2019-03-30T13:47:37.948Z,75.30
2019-03-30T13:50:08.634Z,75.00
2019-03-30T13:52:39.328Z,73.50
2019-03-30T13:55:09.755Z,72.80
2019-03-30T13:57:39.112Z,73.90
2019-03-30T14:00:09.927Z,74.50
2019-03-30T14:02:39.267Z,75.00
2019-03-30T14:05:09.432Z,75.30
2019-03-30T14:07:38.776Z,76.40
2019-03-30T14:10:10.062Z,76.60
2019-03-30T14:12:39.485Z,76.20
2019-03-30T14:15:09.738Z,75.90
2019-03-30T14:17:39.057Z,75.20
2019-03-30T14:20:09.415Z,73.20
2019-03-30T14:22:38.752Z,72.30
2019-03-30T14:25:08.707Z,72.20
2019-03-30T14:27:38.069Z,73.10
2019-03-30T14:30:11.292Z,74.40
2019-03-30T14:32:40.647Z,74.00
2019-03-30T14:35:10.293Z,74.10
2019-03-30T14:37:39.807Z,73.60
2019-03-30T14:40:09.989Z,73.20
2019-03-30T14:42:39.336Z,72.60
2019-03-30T14:45:09.587Z,72.60
2019-03-30T14:47:38.936Z,73.20
2019-03-30T14:50:09.708Z,72.70
2019-03-30T14:52:39.075Z,74.00
2019-03-30T14:55:09.728Z,72.90
2019-03-30T14:57:39.075Z,74.00
2019-03-30T15:00:11.330Z,74.50
2019-03-30T15:02:40.756Z,75.40
2019-03-30T15:05:10.178Z,76.40
2019-03-30T15:07:39.527Z,77.20
2019-03-30T15:10:10.190Z,78.20
2019-03-30T15:12:39.973Z,79.20
2019-03-30T15:15:14.210Z,80.30
2019-03-30T15:17:43.578Z,82.40
2019-03-30T15:20:13.735Z,83.50
2019-03-30T15:22:43.079Z,82.90
2019-03-30T15:25:12.941Z,81.40
2019-03-30T15:27:42.279Z,80.30
2019-03-30T15:30:12.344Z,79.70
2019-03-30T15:32:41.687Z,79.80
2019-03-30T15:35:11.350Z,80.40
2019-03-30T15:37:40.698Z,79.80
2019-03-30T15:40:10.310Z,78.30
2019-03-30T15:42:40.765Z,80.60
2019-03-30T15:45:11.702Z,80.80
2019-03-30T15:47:41.063Z,80.20
2019-03-30T15:50:11.612Z,81.20
2019-03-30T15:52:41.033Z,82.30
2019-03-30T15:55:10.790Z,83.20
2019-03-30T15:57:40.137Z,83.50
2019-03-30T16:00:15.784Z,84.20
2019-03-30T16:02:45.120Z,85.30
2019-03-30T16:05:15.736Z,84.40
2019-03-30T16:07:45.155Z,85.10
2019-03-30T16:10:14.925Z,85.50
2019-03-30T16:12:44.279Z,85.30
2019-03-30T16:15:13.981Z,84.90
2019-03-30T16:17:43.355Z,83.70
2019-03-30T16:20:14.775Z,83.30
2019-03-30T16:22:44.971Z,81.10
2019-03-30T16:25:14.492Z,80.20
2019-03-30T16:27:43.840Z,77.50
2019-03-30T16:30:13.705Z,76.80
2019-03-30T16:32:43.125Z,75.30
2019-03-30T16:35:12.486Z,75.50
2019-03-30T16:37:41.827Z,76.10
2019-03-30T16:40:11.810Z,76.90
2019-03-30T16:42:41.190Z,78.00
2019-03-30T16:45:11.139Z,79.10
2019-03-30T16:47:40.485Z,78.90
2019-03-30T16:50:10.645Z,79.70
2019-03-30T16:52:41.130Z,79.30
2019-03-30T16:55:10.868Z,79.90
2019-03-30T16:57:43.492Z,80.20
2019-03-30T17:00:11.997Z,81.00
2019-03-30T17:02:41.339Z,82.10
2019-03-30T17:05:12.091Z,83.00
2019-03-30T17:07:41.435Z,83.70
2019-03-30T17:10:11.390Z,83.80
2019-03-30T17:12:40.749Z,85.00
2019-03-30T17:15:10.795Z,85.90
2019-03-30T17:17:40.143Z,86.10
2019-03-30T17:20:10.336Z,85.80
2019-03-30T17:22:39.677Z,86.20
2019-03-30T17:25:09.557Z,86.60
2019-03-30T17:27:38.954Z,86.80
2019-03-30T17:30:11.531Z,86.80
2019-03-30T17:32:40.876Z,86.20
2019-03-30T17:35:10.347Z,86.90
2019-03-30T17:37:39.692Z,87.30
2019-03-30T17:40:11.147Z,87.40
2019-03-30T17:42:40.483Z,87.40
2019-03-30T17:45:11.230Z,87.90
2019-03-30T17:47:40.581Z,88.10
2019-03-30T17:50:10.668Z,88.50
2019-03-30T17:52:39.988Z,88.90
2019-03-30T17:55:10.821Z,89.20
2019-03-30T17:57:40.231Z,89.60
2019-03-30T18:00:13.992Z,89.90
2019-03-30T18:02:43.341Z,90.00
2019-03-30T18:05:12.852Z,90.00
2019-03-30T18:07:42.202Z,90.20
2019-03-30T18:10:14.144Z,90.50
2019-03-30T18:12:43.490Z,90.80
2019-03-30T18:15:13.855Z,91.10
2019-03-30T18:17:43.207Z,91.40
2019-03-30T18:20:13.163Z,91.60
2019-03-30T18:22:42.506Z,91.90
2019-03-30T18:25:12.101Z,92.30
2019-03-30T18:27:41.444Z,92.60
2019-03-30T18:30:13.356Z,92.80
2019-03-30T18:32:43.355Z,93.10
2019-03-30T18:35:13.113Z,93.30
2019-03-30T18:37:42.999Z,93.40
2019-03-30T18:40:16.955Z,93.60
2019-03-30T18:42:46.468Z,93.80
2019-03-30T18:45:25.935Z,93.90
2019-03-30T18:48:16.199Z,94.00
2019-03-30T18:50:46.957Z,94.20
2019-03-30T18:53:20.319Z,94.00
2019-03-30T18:55:49.667Z,94.20
2019-03-30T18:58:19.022Z,94.30
2019-03-30T19:00:48.374Z,94.40
2019-03-30T19:03:20.018Z,94.50
2019-03-30T19:05:48.802Z,95.00
2019-03-30T19:08:18.147Z,95.30
2019-03-30T19:10:47.492Z,95.50
2019-03-30T19:13:16.841Z,95.60
2019-03-30T19:15:46.183Z,95.90
2019-03-30T19:18:15.536Z,95.70
2019-03-30T19:20:44.879Z,95.40
2019-03-30T19:23:14.222Z,95.50
2019-03-30T19:25:43.567Z,95.50
2019-03-30T19:28:12.916Z,95.50
2019-03-30T19:30:42.768Z,95.30
2019-03-30T19:33:12.190Z,95.30
2019-03-30T19:35:41.596Z,95.50
2019-03-30T19:38:11.149Z,95.70
2019-03-30T19:40:40.582Z,95.90
2019-03-30T19:43:09.927Z,96.00
2019-03-30T19:45:39.281Z,96.20
2019-03-30T19:48:08.628Z,96.40
2019-03-30T19:50:37.992Z,96.30
2019-03-30T19:53:07.330Z,96.40
2019-03-30T19:55:36.739Z,96.30
2019-03-30T19:58:06.259Z,96.50
2019-03-30T20:00:38.521Z,96.70
2019-03-30T20:03:06.847Z,96.90
2019-03-30T20:05:36.196Z,96.60
2019-03-30T20:08:12.058Z,97.00
2019-03-30T20:10:36.614Z,97.50
2019-03-30T20:13:09.110Z,97.10
2019-03-30T20:15:37.046Z,97.20
2019-03-30T20:18:06.459Z,97.30
2019-03-30T20:20:35.802Z,97.40
2019-03-30T20:23:05.150Z,97.70
2019-03-30T20:25:34.564Z,97.90
2019-03-30T20:28:04.200Z,98.30
2019-03-30T20:30:33.552Z,98.50
2019-03-30T20:33:02.901Z,99.30
2019-03-30T20:35:32.247Z,98.90
2019-03-30T20:38:01.590Z,99.10
2019-03-30T20:40:30.939Z,99.10
2019-03-30T20:43:00.295Z,99.40
2019-03-30T20:45:29.641Z,99.50
2019-03-30T20:47:58.985Z,99.70
2019-03-30T20:50:28.326Z,99.50
2019-03-30T20:52:57.676Z,99.80
2019-03-30T20:55:27.019Z,99.80
2019-03-30T20:57:56.363Z,99.90
2019-03-30T21:00:25.706Z,99.90
2019-03-30T21:02:55.051Z,99.90
2019-03-30T21:05:24.405Z,99.90
2019-03-30T21:07:53.830Z,99.90
2019-03-30T21:10:24.099Z,99.90
2019-03-30T21:12:53.439Z,99.90
2019-03-30T21:15:22.792Z,99.90
2019-03-30T21:17:52.132Z,99.90
2019-03-30T21:20:21.482Z,99.90
2019-03-30T21:22:50.830Z,99.90
2019-03-30T21:25:20.181Z,99.90
2019-03-30T21:27:49.535Z,99.90
2019-03-30T21:30:19.230Z,99.90
2019-03-30T21:32:48.573Z,99.90
2019-03-30T21:35:18.034Z,99.90
2019-03-30T21:37:47.394Z,99.90
2019-03-30T21:40:16.740Z,99.90
2019-03-30T21:42:46.085Z,99.90
2019-03-30T21:45:15.431Z,99.90
2019-03-30T21:47:44.776Z,99.90
2019-03-30T21:50:14.195Z,99.90
2019-03-30T21:52:43.536Z,99.90
2019-03-30T21:55:13.586Z,99.90
2019-03-30T21:57:42.952Z,99.90
2019-03-30T22:00:14.176Z,99.90
2019-03-30T22:02:43.534Z,99.90
2019-03-30T22:05:12.878Z,99.90
2019-03-30T22:07:42.491Z,99.90
2019-03-30T22:10:16.448Z,99.90
2019-03-30T22:12:45.793Z,99.90
2019-03-30T22:15:19.186Z,99.90
2019-03-30T22:17:48.527Z,99.90
2019-03-30T22:20:21.170Z,99.90
2019-03-30T22:22:48.948Z,99.90
2019-03-30T22:25:18.291Z,99.90
2019-03-30T22:27:47.639Z,99.90
2019-03-30T22:30:24.583Z,99.90
2019-03-30T22:32:49.067Z,99.90
2019-03-30T22:35:18.411Z,99.90
2019-03-30T22:37:47.755Z,99.90
2019-03-30T22:40:17.104Z,99.90
2019-03-30T22:42:46.447Z,99.90
2019-03-30T22:45:15.785Z,99.90
2019-03-30T22:47:45.131Z,99.90
2019-03-30T22:50:14.704Z,99.90
2019-03-30T22:52:44.044Z,99.90
2019-03-30T22:55:13.457Z,99.90
2019-03-30T22:57:42.822Z,99.90
2019-03-30T23:00:17.333Z,99.90
2019-03-30T23:02:47.047Z,99.90
2019-03-30T23:05:16.389Z,99.90
2019-03-30T23:07:45.729Z,99.90
2019-03-30T23:10:15.078Z,99.90
2019-03-30T23:12:44.423Z,99.90
2019-03-30T23:15:13.765Z,99.90
2019-03-30T23:17:43.109Z,99.90
2019-03-30T23:20:12.447Z,99.90
2019-03-30T23:22:41.790Z,99.90
2019-03-30T23:25:11.126Z,99.90
2019-03-30T23:27:40.471Z,99.90
2019-03-30T23:30:10.526Z,99.90
2019-03-30T23:32:39.873Z,99.90
2019-03-30T23:35:10.997Z,99.90
2019-03-30T23:37:40.344Z,99.90
2019-03-30T23:40:09.818Z,99.90
2019-03-30T23:42:39.159Z,99.90
2019-03-30T23:45:08.580Z,99.90
2019-03-30T23:47:37.908Z,99.90
2019-03-30T23:50:08.297Z,99.90
2019-03-30T23:52:37.642Z,99.90
2019-03-30T23:55:07.320Z,99.90
2019-03-30T23:57:36.664Z,99.90
